createdAt,value
2022-09-01T00:00:33.268Z,13.82
2022-09-01T00:05:37.210Z,13.83
2022-09-01T00:10:40.978Z,13.97
2022-09-01T00:15:46.218Z,13.82
2022-09-01T00:20:49.699Z,13.78
2022-09-01T00:25:53.952Z,13.81
2022-09-01T00:30:59.259Z,13.58
2022-09-01T00:36:03.694Z,13.57
2022-09-01T00:41:07.906Z,13.46
2022-09-01T00:46:16.259Z,13.44
2022-09-01T00:51:24.335Z,13.22
2022-09-01T00:56:28.193Z,12.90
2022-09-01T01:01:35.226Z,12.83
2022-09-01T01:06:39.385Z,12.77
2022-09-01T01:11:45.259Z,12.45
2022-09-01T01:16:52.110Z,12.30
2022-09-01T01:22:15.070Z,12.35
2022-09-01T01:27:21.960Z,12.04
2022-09-01T01:32:26.562Z,12.18
2022-09-01T01:37:30.745Z,11.91
2022-09-01T01:42:38.871Z,11.78
2022-09-01T01:47:42.423Z,11.72
2022-09-01T01:52:46.115Z,11.61
2022-09-01T01:57:51.422Z,11.50
2022-09-01T02:02:55.894Z,11.32
2022-09-01T02:08:04.108Z,11.17
2022-09-01T02:13:12.097Z,10.95
2022-09-01T02:18:19.768Z,11.04
2022-09-01T02:23:24.540Z,11.03
2022-09-01T02:28:32.077Z,10.82
2022-09-01T02:33:38.060Z,10.82
2022-09-01T02:38:46.631Z,10.91
2022-09-01T02:43:52.353Z,10.69
2022-09-01T02:48:56.213Z,10.77
2022-09-01T02:54:00.659Z,10.62
2022-09-01T02:59:05.754Z,10.55
2022-09-01T03:04:10.536Z,10.35
2022-09-01T03:09:16.880Z,10.39
2022-09-01T03:14:24.351Z,10.28
2022-09-01T03:19:32.370Z,10.10
2022-09-01T03:24:36.406Z,10.22
2022-09-01T03:29:41.309Z,10.16
2022-09-01T03:34:45.229Z,9.98
2022-09-01T03:39:48.904Z,9.96
2022-09-01T03:44:56.744Z,9.92
2022-09-01T03:50:00.807Z,9.80
2022-09-01T03:55:07.259Z,9.86
2022-09-01T04:00:21.056Z,9.71
2022-09-01T04:05:28.824Z,9.72
2022-09-01T04:10:38.310Z,9.51
2022-09-01T04:15:44.531Z,9.73
2022-09-01T04:20:50.417Z,9.60
2022-09-01T04:26:00.012Z,9.51
2022-09-01T04:31:08.552Z,9.46
2022-09-01T04:36:19.732Z,9.45
2022-09-01T04:41:25.900Z,9.37
2022-09-01T04:46:35.346Z,9.52
2022-09-01T04:51:41.292Z,9.36
2022-09-01T04:56:48.061Z,9.21
2022-09-01T05:01:57.712Z,9.13
2022-09-01T05:07:03.141Z,9.23
2022-09-01T05:12:15.933Z,9.28
2022-09-01T05:17:24.610Z,9.31
2022-09-01T05:22:28.180Z,9.28
2022-09-01T05:27:39.726Z,9.51
2022-09-01T05:32:45.240Z,9.46
2022-09-01T05:37:51.806Z,9.64
2022-09-01T05:42:56.386Z,9.82
2022-09-01T05:48:02.652Z,10.02
2022-09-01T05:53:12.838Z,9.97
2022-09-01T05:58:18.147Z,10.06
2022-09-01T06:03:25.052Z,10.29
2022-09-01T06:08:29.484Z,10.78
2022-09-01T06:13:33.144Z,11.53
2022-09-01T06:18:41.118Z,11.91
2022-09-01T06:23:46.158Z,11.55
2022-09-01T06:28:54.490Z,11.80
2022-09-01T06:34:00.002Z,12.02
2022-09-01T06:39:05.570Z,12.90
2022-09-01T06:44:14.488Z,13.57
2022-09-01T06:49:33.248Z,14.54
2022-09-01T06:54:39.751Z,14.84
2022-09-01T06:59:45.847Z,16.07
2022-09-01T07:04:53.605Z,16.82
2022-09-01T07:10:18.116Z,17.06
2022-09-01T07:21:35.816Z,17.99
2022-09-01T07:26:24.704Z,18.06
2022-09-01T07:31:51.268Z,17.97
2022-09-01T07:48:36.698Z,17.93
2022-09-01T07:53:46.284Z,17.87
2022-09-01T07:58:54.018Z,18.58
2022-09-01T08:04:02.935Z,17.73
2022-09-01T08:09:11.569Z,18.49
2022-09-01T08:14:18.166Z,18.23
2022-09-01T08:19:23.170Z,18.63
2022-09-01T08:24:54.503Z,18.23
2022-09-01T08:30:00.386Z,18.59
2022-09-01T08:35:05.051Z,18.12
2022-09-01T08:40:15.742Z,18.52
2022-09-01T08:45:24.595Z,18.53
2022-09-01T08:50:28.516Z,19.05
2022-09-01T08:55:56.111Z,19.08
2022-09-01T09:01:05.127Z,19.88
2022-09-01T09:06:16.535Z,20.54
2022-09-01T09:11:42.201Z,20.60
2022-09-01T09:16:51.639Z,19.44
2022-09-01T09:21:59.523Z,20.94
2022-09-01T09:27:04.404Z,20.22
2022-09-01T09:32:44.318Z,20.90
2022-09-01T09:37:36.001Z,20.88
2022-09-01T09:42:42.663Z,19.99
2022-09-01T09:47:47.800Z,20.65
2022-09-01T09:52:53.314Z,20.13
2022-09-01T09:58:00.792Z,21.40
2022-09-01T10:03:10.194Z,22.36
2022-09-01T10:08:37.473Z,21.95
2022-09-01T10:13:42.686Z,20.82
2022-09-01T10:18:48.723Z,20.91
2022-09-01T10:23:52.288Z,22.23
2022-09-01T10:29:01.574Z,20.76
2022-09-01T10:34:07.552Z,22.27
2022-09-01T10:39:12.766Z,21.77
2022-09-01T10:44:21.398Z,21.80
2022-09-01T10:50:10.373Z,22.50
2022-09-01T10:55:24.437Z,22.91
2022-09-01T11:06:35.411Z,21.33
2022-09-01T11:11:46.880Z,21.69
2022-09-01T11:17:15.251Z,22.25
2022-09-01T11:22:26.644Z,22.02
2022-09-01T11:28:02.896Z,21.62
2022-09-01T11:33:20.209Z,21.93
2022-09-01T11:38:25.339Z,21.59
2022-09-01T11:43:29.758Z,21.34
2022-09-01T11:48:35.007Z,21.26
2022-09-01T11:53:38.695Z,21.64
2022-09-01T11:58:42.591Z,21.55
2022-09-01T12:03:49.842Z,22.17
2022-09-01T12:08:57.539Z,22.29
2022-09-01T12:14:04.728Z,21.81
2022-09-01T12:19:24.964Z,21.88
2022-09-01T12:24:29.819Z,22.22
2022-09-01T12:29:34.154Z,22.82
2022-09-01T12:34:43.368Z,22.38
2022-09-01T12:39:49.991Z,22.45
2022-09-01T12:44:57.269Z,21.71
2022-09-01T12:50:05.442Z,22.44
2022-09-01T13:00:56.884Z,22.81
2022-09-01T13:06:03.997Z,22.96
2022-09-01T13:11:12.608Z,22.47
2022-09-01T13:16:16.554Z,23.02
2022-09-01T13:21:21.993Z,22.53
2022-09-01T13:26:26.524Z,22.93
2022-09-01T13:31:31.724Z,23.05
2022-09-01T13:36:48.517Z,22.18
2022-09-01T13:41:55.121Z,22.60
2022-09-01T13:46:59.301Z,23.35
2022-09-01T13:52:05.569Z,22.69
2022-09-01T13:57:09.962Z,23.21
2022-09-01T14:02:14.137Z,22.83
2022-09-01T14:07:20.779Z,23.46
2022-09-01T14:12:26.861Z,22.82
2022-09-01T14:17:31.267Z,22.99
2022-09-01T14:22:38.615Z,22.25
2022-09-01T14:27:44.637Z,21.53
2022-09-01T14:32:49.390Z,21.74
2022-09-01T14:37:55.197Z,21.54
2022-09-01T14:42:59.337Z,21.67
2022-09-01T14:48:03.677Z,22.00
2022-09-01T14:53:10.653Z,22.12
2022-09-01T14:58:17.726Z,21.96
2022-09-01T15:03:24.599Z,21.47
2022-09-01T15:08:31.966Z,20.98
2022-09-01T15:13:35.888Z,21.12
2022-09-01T15:18:39.962Z,20.95
2022-09-01T15:23:48.602Z,20.79
2022-09-01T15:28:53.948Z,20.46
2022-09-01T15:34:00.207Z,20.67
2022-09-01T15:39:08.270Z,21.32
2022-09-01T15:44:12.927Z,21.11
2022-09-01T15:49:18.232Z,21.44
2022-09-01T15:54:30.205Z,21.33
2022-09-01T15:59:36.190Z,21.17
2022-09-01T16:04:40.839Z,21.16
2022-09-01T16:09:47.981Z,21.06
2022-09-01T16:14:53.176Z,20.99
2022-09-01T16:20:05.059Z,20.84
2022-09-01T16:25:17.336Z,20.82
2022-09-01T16:30:25.818Z,20.64
2022-09-01T16:35:45.054Z,20.63
2022-09-01T16:40:56.681Z,20.57
2022-09-01T16:46:09.358Z,20.46
2022-09-01T16:51:25.774Z,20.15
2022-09-01T16:56:37.983Z,19.82
2022-09-01T17:01:50.138Z,19.43
2022-09-01T17:07:01.018Z,19.18
2022-09-01T17:12:28.560Z,18.99
2022-09-01T17:17:45.949Z,18.63
2022-09-01T17:22:54.122Z,18.55
2022-09-01T17:28:07.363Z,18.43
2022-09-01T17:33:26.723Z,18.21
2022-09-01T17:38:54.681Z,17.61
2022-09-01T17:44:16.163Z,17.26
2022-09-01T17:49:26.386Z,16.92
2022-09-01T17:54:42.561Z,16.65
2022-09-01T17:59:55.753Z,16.22
2022-09-01T18:05:10.462Z,16.06
2022-09-01T18:10:20.767Z,15.67
2022-09-01T18:15:26.698Z,15.71
2022-09-01T18:20:39.916Z,15.50
2022-09-01T18:25:49.664Z,15.20
2022-09-01T18:31:04.668Z,15.08
2022-09-01T18:36:25.825Z,14.91
2022-09-01T18:41:42.482Z,14.73
2022-09-01T18:47:00.090Z,14.12
2022-09-01T18:52:13.850Z,14.24
2022-09-01T18:57:21.478Z,14.18
2022-09-01T19:02:45.994Z,13.70
2022-09-01T19:07:57.419Z,13.63
2022-09-01T19:13:10.128Z,13.71
2022-09-01T19:18:27.038Z,13.50
2022-09-01T19:23:43.255Z,13.20
2022-09-01T19:28:51.948Z,13.22
2022-09-01T19:34:01.449Z,13.00
2022-09-01T19:39:10.775Z,12.75
2022-09-01T19:44:22.841Z,12.77
2022-09-01T19:49:38.472Z,12.68
2022-09-01T19:54:52.060Z,12.40
2022-09-01T20:00:05.807Z,12.52
2022-09-01T20:05:17.914Z,12.30
2022-09-01T20:10:56.227Z,12.28
2022-09-01T20:16:12.582Z,12.17
2022-09-01T20:21:21.538Z,11.94
2022-09-01T20:26:32.797Z,12.10
2022-09-01T20:31:46.213Z,11.90
2022-09-01T20:36:56.239Z,11.68
2022-09-01T20:42:04.901Z,11.66
2022-09-01T20:47:09.129Z,11.64
2022-09-01T20:52:30.813Z,11.51
2022-09-01T20:57:41.712Z,11.51
2022-09-01T21:02:54.300Z,11.40
2022-09-01T21:08:14.591Z,11.34
2022-09-01T21:13:30.768Z,11.12
2022-09-01T21:18:47.690Z,10.96
2022-09-01T21:23:53.132Z,10.87
2022-09-01T21:29:05.727Z,10.67
2022-09-01T21:34:11.017Z,10.78
2022-09-01T21:39:19.829Z,10.76
2022-09-01T21:44:23.665Z,10.68
2022-09-01T21:49:27.580Z,10.61
2022-09-01T21:54:35.038Z,10.63
2022-09-01T21:59:38.639Z,10.57
2022-09-01T22:04:42.216Z,10.63
2022-09-01T22:09:47.689Z,10.56
2022-09-01T22:14:51.588Z,10.57
2022-09-01T22:19:55.725Z,10.62
2022-09-01T22:25:01.163Z,10.65
2022-09-01T22:30:05.882Z,10.69
2022-09-01T22:35:12.493Z,10.77
2022-09-01T22:40:18.738Z,10.86
2022-09-01T22:45:22.862Z,10.88
2022-09-01T22:50:26.625Z,10.89
2022-09-01T22:55:31.674Z,10.73
2022-09-01T23:00:36.495Z,10.70
2022-09-01T23:05:40.517Z,10.73
2022-09-01T23:10:45.823Z,10.76
2022-09-01T23:15:49.622Z,10.64
2022-09-01T23:20:53.173Z,10.47
2022-09-01T23:25:58.383Z,10.36
2022-09-01T23:31:02.370Z,10.38
2022-09-01T23:36:08.441Z,10.36
2022-09-01T23:41:16.000Z,10.26
2022-09-01T23:46:22.464Z,10.09
2022-09-01T23:51:26.991Z,10.03
2022-09-01T23:56:32.339Z,9.90
